createdAt,value
2023-05-09T00:01:06.940Z,6.48
2023-05-09T00:03:33.657Z,6.60
2023-05-09T00:06:01.521Z,6.68
2023-05-09T00:08:28.484Z,6.71
2023-05-09T00:10:55.231Z,6.74
2023-05-09T00:13:23.092Z,6.75
2023-05-09T00:15:53.408Z,6.68
2023-05-09T00:18:21.574Z,6.65
2023-05-09T00:20:49.397Z,6.68
2023-05-09T00:23:16.274Z,6.84
2023-05-09T00:25:43.192Z,6.79
2023-05-09T00:28:10.326Z,6.79
2023-05-09T00:30:37.884Z,6.82
2023-05-09T00:33:05.685Z,6.91
2023-05-09T00:35:32.698Z,7.00
2023-05-09T00:37:59.644Z,6.91
2023-05-09T00:40:26.385Z,7.02
2023-05-09T00:42:55.373Z,7.13
2023-05-09T00:45:22.210Z,7.09
2023-05-09T00:47:49.086Z,7.21
2023-05-09T00:50:16.516Z,4.82
2023-05-09T00:52:43.354Z,4.96
2023-05-09T00:55:10.421Z,5.10
2023-05-09T00:57:38.107Z,5.38
2023-05-09T01:00:06.128Z,5.44
2023-05-09T01:02:33.444Z,5.54
2023-05-09T01:05:01.452Z,5.69
2023-05-09T01:07:37.820Z,5.92
2023-05-09T01:10:16.273Z,5.94
2023-05-09T01:12:43.011Z,5.96
2023-05-09T01:15:31.650Z,5.94
2023-05-09T01:18:25.705Z,6.02
2023-05-09T01:21:04.145Z,6.07
2023-05-09T01:24:09.477Z,6.10
2023-05-09T01:27:13.577Z,6.08
2023-05-09T01:29:59.582Z,6.12
2023-05-09T01:32:27.724Z,6.40
2023-05-09T01:34:56.137Z,6.57
2023-05-09T01:37:35.873Z,6.65
2023-05-09T01:40:20.934Z,6.71
2023-05-09T01:42:57.978Z,6.72
2023-05-09T01:45:24.759Z,6.82
2023-05-09T01:47:51.564Z,6.92
2023-05-09T01:50:18.849Z,6.64
2023-05-09T01:52:49.597Z,6.69
2023-05-09T01:55:16.701Z,6.71
2023-05-09T01:57:45.212Z,6.73
2023-05-09T02:00:13.318Z,6.74
2023-05-09T02:02:40.544Z,6.77
2023-05-09T02:05:08.970Z,6.61
2023-05-09T02:07:35.755Z,6.54
2023-05-09T02:10:02.923Z,6.69
2023-05-09T02:12:29.889Z,6.85
2023-05-09T02:14:56.787Z,6.91
2023-05-09T02:17:23.665Z,6.83
2023-05-09T02:19:50.431Z,6.96
2023-05-09T02:22:17.249Z,7.00
2023-05-09T02:24:47.060Z,7.05
2023-05-09T02:27:14.215Z,7.11
2023-05-09T02:29:49.003Z,7.19
2023-05-09T02:32:18.723Z,7.20
2023-05-09T02:34:46.326Z,7.18
2023-05-09T02:37:13.138Z,7.19
2023-05-09T02:39:40.159Z,7.39
2023-05-09T02:42:11.096Z,7.62
2023-05-09T02:44:40.670Z,7.63
2023-05-09T02:47:07.868Z,7.63
2023-05-09T02:49:35.930Z,7.72
2023-05-09T02:52:03.496Z,7.73
2023-05-09T02:54:30.337Z,7.75
2023-05-09T02:56:57.272Z,7.70
2023-05-09T02:59:25.136Z,7.68
2023-05-09T03:01:52.596Z,7.82
2023-05-09T03:04:19.642Z,7.96
2023-05-09T03:06:46.402Z,8.00
2023-05-09T03:09:13.727Z,8.00
2023-05-09T03:11:40.672Z,8.11
2023-05-09T03:14:08.077Z,8.11
2023-05-09T03:16:35.391Z,8.26
2023-05-09T03:19:03.148Z,8.18
2023-05-09T03:21:31.487Z,8.23
2023-05-09T03:23:58.886Z,8.34
2023-05-09T03:26:25.987Z,8.46
2023-05-09T03:28:53.691Z,8.57
2023-05-09T03:31:20.749Z,8.75
2023-05-09T03:33:47.835Z,9.07
2023-05-09T03:36:14.934Z,9.31
2023-05-09T03:38:42.805Z,9.44
2023-05-09T03:41:09.878Z,9.52
2023-05-09T03:43:36.649Z,9.84
2023-05-09T03:46:03.530Z,10.36
2023-05-09T03:48:32.215Z,11.02
2023-05-09T03:50:59.175Z,11.35
2023-05-09T03:53:26.969Z,11.09
2023-05-09T03:55:54.829Z,11.05
2023-05-09T03:58:23.287Z,10.94
2023-05-09T04:00:50.625Z,10.88
2023-05-09T04:03:20.291Z,10.81
2023-05-09T04:05:47.739Z,11.00
2023-05-09T04:08:23.036Z,10.78
2023-05-09T04:10:50.491Z,10.93
2023-05-09T04:13:17.502Z,11.08
2023-05-09T04:15:45.452Z,11.07
2023-05-09T04:18:12.652Z,11.05
2023-05-09T04:20:39.491Z,11.30
2023-05-09T04:23:06.540Z,11.39
2023-05-09T04:25:33.852Z,11.50
2023-05-09T04:28:01.771Z,11.40
2023-05-09T04:30:29.089Z,11.56
2023-05-09T04:32:56.091Z,11.70
2023-05-09T04:35:23.102Z,11.96
2023-05-09T04:37:51.452Z,12.18
2023-05-09T04:40:18.762Z,12.25
2023-05-09T04:42:56.841Z,12.30
2023-05-09T04:45:26.243Z,12.41
2023-05-09T04:47:53.138Z,12.59
2023-05-09T04:50:20.117Z,12.50
2023-05-09T04:52:47.002Z,12.38
2023-05-09T04:55:14.991Z,12.50
2023-05-09T04:57:44.422Z,11.79
2023-05-09T05:00:12.295Z,11.45
2023-05-09T05:02:40.349Z,11.86
2023-05-09T05:05:11.954Z,12.00
2023-05-09T05:07:42.070Z,12.15
2023-05-09T05:10:10.333Z,12.53
2023-05-09T05:12:38.090Z,12.65
2023-05-09T05:15:05.968Z,12.64
2023-05-09T05:17:33.426Z,12.84
2023-05-09T05:20:00.716Z,13.10
2023-05-09T05:22:28.122Z,13.20
2023-05-09T05:24:55.515Z,13.00
2023-05-09T05:27:22.470Z,13.06
2023-05-09T05:29:49.659Z,13.19
2023-05-09T05:32:16.973Z,13.14
2023-05-09T05:34:43.713Z,13.39
2023-05-09T05:37:10.683Z,13.33
2023-05-09T05:39:37.679Z,13.55
2023-05-09T05:42:04.803Z,13.64
2023-05-09T05:44:32.258Z,13.83
2023-05-09T05:46:59.096Z,13.81
2023-05-09T05:49:26.657Z,13.90
2023-05-09T05:51:53.709Z,14.04
2023-05-09T05:54:21.807Z,12.70
2023-05-09T05:56:48.723Z,11.45
2023-05-09T05:59:15.778Z,11.51
2023-05-09T06:01:42.776Z,11.68
2023-05-09T06:04:09.933Z,11.93
2023-05-09T06:06:37.107Z,12.12
2023-05-09T06:09:03.931Z,12.22
2023-05-09T06:11:30.862Z,12.84
2023-05-09T06:13:58.977Z,13.29
2023-05-09T06:16:27.384Z,13.46
2023-05-09T06:18:55.969Z,13.40
2023-05-09T06:21:23.260Z,13.64
2023-05-09T06:24:04.293Z,13.78
2023-05-09T06:26:35.961Z,14.08
2023-05-09T06:29:03.456Z,14.50
2023-05-09T06:31:30.536Z,14.62
2023-05-09T06:33:57.570Z,14.87
2023-05-09T06:36:24.388Z,15.01
2023-05-09T06:38:51.173Z,15.13
2023-05-09T06:41:17.967Z,15.38
2023-05-09T06:43:45.139Z,15.49
2023-05-09T06:46:11.986Z,15.90
2023-05-09T06:48:39.036Z,16.12
2023-05-09T06:51:05.945Z,16.17
2023-05-09T06:53:32.801Z,16.38
2023-05-09T06:55:59.861Z,16.11
2023-05-09T06:58:27.232Z,15.99
2023-05-09T07:00:53.984Z,16.10
2023-05-09T07:03:20.792Z,16.57
2023-05-09T07:05:47.767Z,16.64
2023-05-09T07:08:14.585Z,16.61
2023-05-09T07:10:41.433Z,16.37
2023-05-09T07:13:08.335Z,16.55
2023-05-09T07:15:41.986Z,16.38
2023-05-09T07:18:09.915Z,16.48
2023-05-09T07:20:37.058Z,16.89
2023-05-09T07:23:04.244Z,17.50
2023-05-09T07:25:31.086Z,17.64
2023-05-09T07:27:57.785Z,14.88
2023-05-09T07:30:24.616Z,14.73
2023-05-09T07:32:51.562Z,14.58
2023-05-09T07:35:19.045Z,14.43
2023-05-09T07:37:45.840Z,15.07
2023-05-09T07:40:12.979Z,15.64
2023-05-09T07:42:40.200Z,16.36
2023-05-09T07:45:07.439Z,16.13
2023-05-09T07:47:34.696Z,16.28
2023-05-09T07:50:01.557Z,16.42
2023-05-09T07:52:28.577Z,16.50
2023-05-09T07:54:55.354Z,16.60
2023-05-09T07:57:22.421Z,16.50
2023-05-09T07:59:49.188Z,16.87
2023-05-09T08:02:16.387Z,17.19
2023-05-09T08:04:43.411Z,17.17
2023-05-09T08:07:11.233Z,17.02
2023-05-09T08:09:37.979Z,16.72
2023-05-09T08:12:05.468Z,16.41
2023-05-09T08:14:32.308Z,16.04
2023-05-09T08:16:59.739Z,15.93
2023-05-09T08:19:26.813Z,15.97
2023-05-09T08:21:53.874Z,16.19
2023-05-09T08:24:20.605Z,16.29
2023-05-09T08:26:47.437Z,16.17
2023-05-09T08:29:14.295Z,16.02
2023-05-09T08:31:41.208Z,15.94
2023-05-09T08:34:08.416Z,15.91
2023-05-09T08:36:38.887Z,15.97
2023-05-09T08:39:05.666Z,16.08
2023-05-09T08:41:35.312Z,15.98
2023-05-09T08:44:02.396Z,15.91
2023-05-09T08:46:32.065Z,16.16
2023-05-09T08:48:58.925Z,16.35
2023-05-09T08:51:25.700Z,16.29
2023-05-09T08:53:52.557Z,16.56
2023-05-09T08:56:19.494Z,16.76
2023-05-09T08:58:46.514Z,16.32
2023-05-09T09:01:13.581Z,16.24
2023-05-09T09:03:46.979Z,16.62
2023-05-09T09:06:13.883Z,16.85
2023-05-09T09:08:42.409Z,16.89
2023-05-09T09:11:12.861Z,17.07
2023-05-09T09:13:40.637Z,17.01
2023-05-09T09:16:14.235Z,17.08
2023-05-09T09:18:40.974Z,16.89
2023-05-09T09:21:09.426Z,18.33
2023-05-09T09:23:37.090Z,17.54
2023-05-09T09:26:04.366Z,15.14
2023-05-09T09:28:32.373Z,15.09
2023-05-09T09:30:59.256Z,15.96
2023-05-09T09:33:26.578Z,14.88
2023-05-09T09:35:54.979Z,15.16
2023-05-09T09:38:22.579Z,15.18
2023-05-09T09:40:55.884Z,15.59
2023-05-09T09:43:41.029Z,15.59
2023-05-09T09:46:09.296Z,15.70
2023-05-09T09:48:37.664Z,15.73
2023-05-09T09:51:09.469Z,15.75
2023-05-09T09:53:42.866Z,16.79
2023-05-09T09:56:09.613Z,17.33
2023-05-09T09:58:36.545Z,17.59
2023-05-09T10:01:20.230Z,17.87
2023-05-09T10:03:47.539Z,18.50
2023-05-09T10:06:15.419Z,18.67
2023-05-09T10:08:46.226Z,19.01
2023-05-09T10:11:13.651Z,18.74
2023-05-09T10:13:40.731Z,18.10
2023-05-09T10:16:08.151Z,17.39
2023-05-09T10:18:35.685Z,17.10
2023-05-09T10:21:04.569Z,17.07
2023-05-09T10:23:33.868Z,16.73
2023-05-09T10:26:03.501Z,16.95
2023-05-09T10:28:32.977Z,17.17
2023-05-09T10:31:01.167Z,15.13
2023-05-09T10:33:33.946Z,15.45
2023-05-09T10:36:00.661Z,16.29
2023-05-09T10:38:27.366Z,16.78
2023-05-09T10:40:54.168Z,16.51
2023-05-09T10:43:23.525Z,15.81
2023-05-09T10:45:51.267Z,15.29
2023-05-09T10:48:18.222Z,14.90
2023-05-09T10:50:45.789Z,14.66
2023-05-09T10:53:18.464Z,14.97
2023-05-09T10:55:50.517Z,15.86
2023-05-09T10:58:19.523Z,16.30
2023-05-09T11:00:47.667Z,16.83
2023-05-09T11:03:14.566Z,16.54
2023-05-09T11:05:41.604Z,16.04
2023-05-09T11:08:18.781Z,16.03
2023-05-09T11:10:45.625Z,15.81
2023-05-09T11:13:12.645Z,15.15
2023-05-09T11:16:12.036Z,14.89
2023-05-09T11:18:52.186Z,15.21
2023-05-09T11:21:19.853Z,15.53
2023-05-09T11:23:47.373Z,15.58
2023-05-09T11:26:15.542Z,15.29
2023-05-09T11:28:42.396Z,15.20
2023-05-09T11:31:14.513Z,15.15
2023-05-09T11:33:42.284Z,15.26
2023-05-09T11:36:29.172Z,15.08
2023-05-09T11:39:06.593Z,15.01
2023-05-09T11:41:43.303Z,16.36
2023-05-09T11:44:17.832Z,17.09
2023-05-09T11:46:45.400Z,17.81
2023-05-09T11:49:12.541Z,18.26
2023-05-09T11:51:39.536Z,18.67
2023-05-09T11:54:07.000Z,18.77
2023-05-09T11:56:34.812Z,19.10
2023-05-09T11:59:02.029Z,19.05
2023-05-09T12:01:29.330Z,16.62
2023-05-09T12:03:57.676Z,15.95
2023-05-09T12:06:29.293Z,15.89
2023-05-09T12:08:58.893Z,16.90
2023-05-09T12:11:25.657Z,17.16
2023-05-09T12:13:52.475Z,17.25
2023-05-09T12:16:19.575Z,17.36
2023-05-09T12:18:47.840Z,17.69
2023-05-09T12:21:15.022Z,18.15
2023-05-09T12:23:41.767Z,18.45
2023-05-09T12:26:09.040Z,18.74
2023-05-09T12:28:35.821Z,18.88
2023-05-09T12:31:03.435Z,18.98
2023-05-09T12:33:30.470Z,18.96
2023-05-09T12:36:06.488Z,19.15
2023-05-09T12:38:34.074Z,19.49
2023-05-09T12:41:18.246Z,18.72
2023-05-09T12:43:55.102Z,16.25
2023-05-09T12:46:22.008Z,16.12
2023-05-09T12:48:48.943Z,15.75
2023-05-09T12:51:20.262Z,15.58
2023-05-09T12:53:47.093Z,15.42
2023-05-09T12:56:18.130Z,15.31
2023-05-09T12:58:49.608Z,15.44
2023-05-09T13:01:17.279Z,15.81
2023-05-09T13:03:44.299Z,17.39
2023-05-09T13:06:12.689Z,17.68
2023-05-09T13:08:40.179Z,17.91
2023-05-09T13:13:41.940Z,18.07
2023-05-09T13:16:10.333Z,18.28
2023-05-09T13:18:38.560Z,17.98
2023-05-09T13:21:05.368Z,17.93
2023-05-09T13:23:32.180Z,17.95
2023-05-09T13:25:59.024Z,18.10
2023-05-09T13:28:25.991Z,18.29
2023-05-09T13:30:52.760Z,18.66
2023-05-09T13:33:25.849Z,18.76
2023-05-09T13:35:53.593Z,19.28
2023-05-09T13:38:20.600Z,19.24
2023-05-09T13:40:47.319Z,19.12
2023-05-09T13:43:14.020Z,18.65
2023-05-09T13:45:40.792Z,18.46
2023-05-09T13:48:07.912Z,18.65
2023-05-09T13:50:34.687Z,18.80
2023-05-09T13:53:01.587Z,18.85
2023-05-09T13:55:30.216Z,18.70
2023-05-09T13:57:57.125Z,18.67
2023-05-09T14:00:26.830Z,18.85
2023-05-09T14:02:53.699Z,19.18
2023-05-09T14:05:20.527Z,18.65
2023-05-09T14:07:47.360Z,16.85
2023-05-09T14:10:14.132Z,16.19
2023-05-09T14:12:43.737Z,16.00
2023-05-09T14:15:10.468Z,15.71
2023-05-09T14:17:37.433Z,15.56
2023-05-09T14:20:05.910Z,15.98
2023-05-09T14:22:32.991Z,16.16
2023-05-09T14:24:59.807Z,16.18
2023-05-09T14:27:26.922Z,15.94
2023-05-09T14:29:53.727Z,15.57
2023-05-09T14:32:20.569Z,15.50
2023-05-09T14:34:49.067Z,15.67
2023-05-09T14:37:16.382Z,15.66
2023-05-09T14:39:44.618Z,15.50
2023-05-09T14:42:13.437Z,15.49
2023-05-09T14:44:40.647Z,14.94
2023-05-09T14:47:08.901Z,14.73
2023-05-09T14:49:36.281Z,14.69
2023-05-09T14:52:03.293Z,14.66
2023-05-09T14:54:31.083Z,14.60
2023-05-09T14:56:58.884Z,14.55
2023-05-09T14:59:25.654Z,14.82
2023-05-09T15:01:53.075Z,14.50
2023-05-09T15:04:19.825Z,14.49
2023-05-09T15:06:46.675Z,14.44
2023-05-09T15:09:14.020Z,14.44
2023-05-09T15:11:48.445Z,14.36
2023-05-09T15:14:16.035Z,14.41
2023-05-09T15:16:42.801Z,14.45
2023-05-09T15:19:09.593Z,14.71
2023-05-09T15:21:36.503Z,15.95
2023-05-09T15:24:04.207Z,16.75
2023-05-09T15:26:31.767Z,17.05
2023-05-09T15:28:58.576Z,16.95
2023-05-09T15:31:25.642Z,16.84
2023-05-09T15:33:52.636Z,16.60
2023-05-09T15:36:19.650Z,16.29
2023-05-09T15:38:49.101Z,15.61
2023-05-09T15:41:16.316Z,15.04
2023-05-09T15:43:43.597Z,14.80
2023-05-09T15:46:10.466Z,14.67
2023-05-09T15:48:37.420Z,14.49
2023-05-09T15:51:04.667Z,14.36
2023-05-09T15:53:32.117Z,14.31
2023-05-09T15:55:58.891Z,14.22
2023-05-09T15:58:25.721Z,14.01
2023-05-09T16:00:52.474Z,15.39
2023-05-09T16:03:19.527Z,16.54
2023-05-09T16:05:46.526Z,16.89
2023-05-09T16:08:13.893Z,16.69
2023-05-09T16:10:40.646Z,16.66
2023-05-09T16:13:08.835Z,16.66
2023-05-09T16:15:35.940Z,16.73
2023-05-09T16:18:03.232Z,16.92
2023-05-09T16:20:30.991Z,17.03
2023-05-09T16:22:58.017Z,17.17
2023-05-09T16:25:24.804Z,17.53
2023-05-09T16:27:53.039Z,16.94
2023-05-09T16:30:19.868Z,14.08
2023-05-09T16:32:46.857Z,14.15
2023-05-09T16:35:13.691Z,14.41
2023-05-09T16:37:40.536Z,13.89
2023-05-09T16:40:08.145Z,13.47
2023-05-09T16:42:35.498Z,13.19
2023-05-09T16:45:02.322Z,13.01
2023-05-09T16:47:29.372Z,12.86
2023-05-09T16:49:56.221Z,13.89
2023-05-09T16:52:23.362Z,14.86
2023-05-09T16:54:50.252Z,15.22
2023-05-09T16:57:17.241Z,15.48
2023-05-09T16:59:44.146Z,15.65
2023-05-09T17:02:10.914Z,15.76
2023-05-09T17:04:37.984Z,15.83
2023-05-09T17:07:05.229Z,15.76
2023-05-09T17:09:32.060Z,15.95
2023-05-09T17:11:59.967Z,16.06
2023-05-09T17:14:26.950Z,16.29
2023-05-09T17:16:54.293Z,16.56
2023-05-09T17:19:22.847Z,16.60
2023-05-09T17:21:49.715Z,16.75
2023-05-09T17:24:16.722Z,16.83
2023-05-09T17:26:43.446Z,16.95
2023-05-09T17:29:10.188Z,17.04
2023-05-09T17:31:37.393Z,17.31
2023-05-09T17:34:04.906Z,17.42
2023-05-09T17:36:32.930Z,17.37
2023-05-09T17:39:00.281Z,17.73
2023-05-09T17:41:27.118Z,17.83
2023-05-09T17:43:56.745Z,17.82
2023-05-09T17:46:23.712Z,17.70
2023-05-09T17:48:50.767Z,17.61
2023-05-09T17:51:17.690Z,17.65
2023-05-09T17:53:44.549Z,17.70
2023-05-09T17:56:11.300Z,17.55
2023-05-09T17:58:38.289Z,17.56
2023-05-09T18:01:05.095Z,17.53
2023-05-09T18:03:32.819Z,17.49
2023-05-09T18:05:59.925Z,17.52
2023-05-09T18:08:27.178Z,17.53
2023-05-09T18:10:54.138Z,17.39
2023-05-09T18:13:21.048Z,17.17
2023-05-09T18:15:47.979Z,11.68
2023-05-09T18:18:17.871Z,12.68
2023-05-09T18:20:46.461Z,12.85
2023-05-09T18:23:14.239Z,12.74
2023-05-09T18:25:41.426Z,12.92
2023-05-09T18:28:08.733Z,13.34
2023-05-09T18:30:36.024Z,12.85
2023-05-09T18:33:03.176Z,13.02
2023-05-09T18:35:31.019Z,13.33
2023-05-09T18:37:57.869Z,13.65
2023-05-09T18:40:24.705Z,13.93
2023-05-09T18:42:51.522Z,11.50
2023-05-09T18:45:18.398Z,9.81
2023-05-09T18:47:45.639Z,10.46
2023-05-09T18:50:13.229Z,11.38
2023-05-09T18:52:40.172Z,12.02
2023-05-09T18:55:07.296Z,11.23
2023-05-09T18:57:34.175Z,10.34
2023-05-09T19:00:01.500Z,10.31
2023-05-09T19:02:29.575Z,10.58
2023-05-09T19:04:56.417Z,10.76
2023-05-09T19:07:23.568Z,10.87
2023-05-09T19:09:50.808Z,11.03
2023-05-09T19:12:17.618Z,10.30
2023-05-09T19:14:44.427Z,10.38
2023-05-09T19:17:11.330Z,10.54
2023-05-09T19:19:38.108Z,10.70
2023-05-09T19:22:05.559Z,10.77
2023-05-09T19:24:32.614Z,10.92
2023-05-09T19:26:59.636Z,11.04
2023-05-09T19:29:26.418Z,10.48
2023-05-09T19:31:53.080Z,9.37
2023-05-09T19:34:19.884Z,9.97
2023-05-09T19:36:46.649Z,9.97
2023-05-09T19:39:13.672Z,9.96
2023-05-09T19:41:40.889Z,9.24
2023-05-09T19:44:07.778Z,9.59
2023-05-09T19:46:37.378Z,8.83
2023-05-09T19:49:04.416Z,8.66
2023-05-09T19:51:31.283Z,9.32
2023-05-09T19:53:58.073Z,9.60
2023-05-09T19:56:25.164Z,9.42
2023-05-09T19:58:52.044Z,9.55
2023-05-09T20:01:19.499Z,9.73
2023-05-09T20:03:46.626Z,9.81
2023-05-09T20:06:13.824Z,9.91
2023-05-09T20:08:40.785Z,9.67
2023-05-09T20:11:07.524Z,9.31
2023-05-09T20:13:35.803Z,9.00
2023-05-09T20:16:03.041Z,9.12
2023-05-09T20:18:32.975Z,8.28
2023-05-09T20:21:00.906Z,8.86
2023-05-09T20:23:28.391Z,8.35
2023-05-09T20:25:55.636Z,8.85
2023-05-09T20:28:22.892Z,8.89
2023-05-09T20:30:49.840Z,8.81
2023-05-09T20:33:17.058Z,8.51
2023-05-09T20:35:43.993Z,8.62
2023-05-09T20:38:11.289Z,8.62
2023-05-09T20:40:38.098Z,8.53
2023-05-09T20:43:04.959Z,8.63
2023-05-09T20:45:31.964Z,8.88
2023-05-09T20:47:58.881Z,9.03
2023-05-09T20:50:25.896Z,9.17
2023-05-09T20:52:52.744Z,9.38
2023-05-09T20:55:21.087Z,9.56
2023-05-09T20:57:48.067Z,9.49
2023-05-09T21:00:15.566Z,8.92
2023-05-09T21:02:42.884Z,7.70
2023-05-09T21:05:09.932Z,8.43
2023-05-09T21:07:36.868Z,8.64
2023-05-09T21:10:03.934Z,8.64
2023-05-09T21:12:32.259Z,8.62
2023-05-09T21:14:59.052Z,8.75
2023-05-09T21:17:25.836Z,8.36
2023-05-09T21:19:52.823Z,7.84
2023-05-09T21:22:19.804Z,7.82
2023-05-09T21:24:46.763Z,7.72
2023-05-09T21:27:14.113Z,7.89
2023-05-09T21:29:40.858Z,7.49
2023-05-09T21:32:07.562Z,7.52
2023-05-09T21:34:34.950Z,7.60
2023-05-09T21:37:01.706Z,7.92
2023-05-09T21:39:28.680Z,8.11
2023-05-09T21:41:55.469Z,7.88
2023-05-09T21:44:22.233Z,7.87
2023-05-09T21:46:49.160Z,7.95
2023-05-09T21:49:16.495Z,7.69
2023-05-09T21:51:43.396Z,7.60
2023-05-09T21:54:10.549Z,7.60
2023-05-09T21:56:37.392Z,7.57
2023-05-09T21:59:04.335Z,7.46
2023-05-09T22:01:31.359Z,7.52
2023-05-09T22:03:58.488Z,7.38
2023-05-09T22:06:25.471Z,7.38
2023-05-09T22:08:52.252Z,7.31
2023-05-09T22:11:19.978Z,7.20
2023-05-09T22:13:46.767Z,7.22
2023-05-09T22:16:13.527Z,7.26
2023-05-09T22:18:40.278Z,7.07
2023-05-09T22:21:07.185Z,7.01
2023-05-09T22:23:34.211Z,6.97
2023-05-09T22:26:01.040Z,6.97
2023-05-09T22:28:28.823Z,7.07
2023-05-09T22:30:55.619Z,7.00
2023-05-09T22:33:22.409Z,6.84
2023-05-09T22:35:49.471Z,5.27
2023-05-09T22:38:16.327Z,5.14
2023-05-09T22:40:43.252Z,5.43
2023-05-09T22:43:10.628Z,5.53
2023-05-09T22:45:37.623Z,5.69
2023-05-09T22:48:05.429Z,5.87
2023-05-09T22:50:32.245Z,5.91
2023-05-09T22:52:58.911Z,5.73
2023-05-09T22:55:25.720Z,5.76
2023-05-09T22:57:52.630Z,5.89
2023-05-09T23:00:19.703Z,5.96
2023-05-09T23:02:46.504Z,5.80
2023-05-09T23:05:13.422Z,6.04
2023-05-09T23:07:40.345Z,5.70
2023-05-09T23:10:07.790Z,5.90
2023-05-09T23:12:34.593Z,6.16
2023-05-09T23:15:01.457Z,6.43
2023-05-09T23:17:28.782Z,6.59
2023-05-09T23:19:55.969Z,6.52
2023-05-09T23:22:23.261Z,6.30
2023-05-09T23:24:50.316Z,6.13
2023-05-09T23:27:17.091Z,5.68
2023-05-09T23:29:43.934Z,4.52
2023-05-09T23:32:10.723Z,4.85
2023-05-09T23:34:38.285Z,5.17
2023-05-09T23:37:05.047Z,5.28
2023-05-09T23:39:32.411Z,5.42
2023-05-09T23:41:59.251Z,5.54
2023-05-09T23:44:26.120Z,5.57
2023-05-09T23:46:53.109Z,5.55
2023-05-09T23:49:20.252Z,5.55
2023-05-09T23:51:47.323Z,5.63
2023-05-09T23:54:15.937Z,5.69
2023-05-09T23:56:43.154Z,5.71
2023-05-09T23:59:09.940Z,5.64
